createdAt,value
2018-07-16T00:00:58.254Z,18.54
2018-07-16T00:01:58.256Z,18.53
2018-07-16T00:02:58.257Z,18.51
2018-07-16T00:03:58.250Z,18.54
2018-07-16T00:04:58.247Z,18.49
2018-07-16T00:05:58.251Z,18.38
2018-07-16T00:06:58.251Z,18.39
2018-07-16T00:07:58.249Z,18.39
2018-07-16T00:08:58.249Z,18.49
2018-07-16T00:09:58.242Z,18.42
2018-07-16T00:10:58.241Z,18.36
2018-07-16T00:11:58.239Z,18.29
2018-07-16T00:12:58.238Z,18.31
2018-07-16T00:13:58.241Z,18.28
2018-07-16T00:14:58.240Z,18.28
2018-07-16T00:15:58.238Z,18.26
2018-07-16T00:16:58.237Z,18.26
2018-07-16T00:17:58.230Z,18.20
2018-07-16T00:18:58.232Z,18.17
2018-07-16T00:19:58.233Z,18.19
2018-07-16T00:20:58.230Z,18.19
2018-07-16T00:21:58.224Z,18.36
2018-07-16T00:22:58.224Z,18.17
2018-07-16T00:23:58.222Z,18.26
2018-07-16T00:24:58.220Z,18.29
2018-07-16T00:25:58.223Z,18.35
2018-07-16T00:26:58.223Z,18.25
2018-07-16T00:27:58.220Z,18.23
2018-07-16T00:28:58.219Z,18.25
2018-07-16T00:29:58.212Z,18.25
2018-07-16T00:30:58.213Z,18.28
2018-07-16T00:31:58.210Z,18.26
2018-07-16T00:32:58.208Z,18.34
2018-07-16T00:33:58.212Z,18.42
2018-07-16T00:34:58.209Z,18.31
2018-07-16T00:35:58.204Z,18.35
2018-07-16T00:36:58.202Z,18.28
2018-07-16T00:37:58.204Z,18.35
2018-07-16T00:38:58.204Z,18.38
2018-07-16T00:39:58.203Z,18.42
2018-07-16T00:40:58.200Z,18.35
2018-07-16T00:41:58.197Z,18.38
2018-07-16T00:42:58.193Z,18.46
2018-07-16T00:43:58.193Z,18.32
2018-07-16T00:44:58.190Z,18.36
2018-07-16T00:45:58.196Z,18.38
2018-07-16T00:46:58.192Z,18.38
2018-07-16T00:47:58.191Z,18.35
2018-07-16T00:48:58.188Z,18.38
2018-07-16T00:49:58.183Z,18.34
2018-07-16T00:50:58.183Z,18.32
2018-07-16T00:51:58.185Z,18.31
2018-07-16T00:52:58.181Z,18.34
2018-07-16T00:53:58.178Z,18.32
2018-07-16T00:54:58.175Z,18.35
2018-07-16T00:55:58.173Z,18.31
2018-07-16T00:56:58.172Z,18.29
2018-07-16T00:57:58.178Z,18.26
2018-07-16T00:58:58.174Z,18.26
2018-07-16T00:59:58.172Z,18.19
2018-07-16T01:00:58.171Z,18.25
2018-07-16T01:01:58.164Z,18.25
2018-07-16T01:02:58.162Z,18.21
2018-07-16T01:03:58.161Z,18.28
2018-07-16T01:04:58.159Z,18.25
2018-07-16T01:05:58.161Z,18.19
2018-07-16T01:06:58.160Z,18.19
2018-07-16T01:07:58.156Z,18.23
2018-07-16T01:08:58.152Z,18.20
2018-07-16T01:09:58.156Z,18.26
2018-07-16T01:10:58.155Z,18.21
2018-07-16T01:11:58.154Z,18.21
2018-07-16T01:12:58.151Z,18.17
2018-07-16T01:13:58.145Z,18.17
2018-07-16T01:14:58.143Z,18.21
2018-07-16T01:15:58.143Z,18.23
2018-07-16T01:16:58.141Z,18.23
2018-07-16T01:17:58.144Z,18.19
2018-07-16T01:18:58.141Z,18.23
2018-07-16T01:19:58.139Z,18.20
2018-07-16T01:20:58.136Z,18.31
2018-07-16T01:21:58.131Z,18.20
2018-07-16T01:22:58.129Z,18.25
2018-07-16T01:23:58.132Z,18.23
2018-07-16T01:24:58.131Z,18.25
2018-07-16T01:25:58.126Z,18.20
2018-07-16T01:26:58.126Z,18.19
2018-07-16T01:27:58.121Z,18.26
2018-07-16T01:28:58.120Z,18.26
2018-07-16T01:29:58.123Z,18.25
2018-07-16T01:30:58.120Z,18.19
2018-07-16T01:31:58.124Z,18.28
2018-07-16T01:32:58.118Z,18.21
2018-07-16T01:33:58.111Z,18.21
2018-07-16T01:34:58.109Z,18.21
2018-07-16T01:35:58.107Z,18.16
2018-07-16T01:36:58.105Z,18.14
2018-07-16T01:37:58.108Z,18.16
2018-07-16T01:38:58.108Z,18.10
2018-07-16T01:39:58.101Z,18.13
2018-07-16T01:40:58.098Z,18.11
2018-07-16T01:41:58.101Z,18.05
2018-07-16T01:42:58.100Z,18.09
2018-07-16T01:43:58.100Z,18.05
2018-07-16T01:44:58.097Z,18.02
2018-07-16T01:45:58.092Z,17.99
2018-07-16T01:46:58.092Z,17.99
2018-07-16T01:47:58.087Z,17.95
2018-07-16T01:48:58.085Z,17.96
2018-07-16T01:49:58.089Z,17.92
2018-07-16T01:50:58.090Z,17.98
2018-07-16T01:51:58.085Z,17.94
2018-07-16T01:52:58.081Z,17.91
2018-07-16T01:53:58.076Z,17.91
2018-07-16T01:54:58.073Z,17.83
2018-07-16T01:55:58.078Z,17.87
2018-07-16T01:56:58.074Z,17.83
2018-07-16T01:57:58.068Z,17.81
2018-07-16T01:58:58.067Z,17.79
2018-07-16T01:59:58.067Z,17.80
2018-07-16T02:00:58.062Z,17.83
2018-07-16T02:01:58.066Z,17.76
2018-07-16T02:02:58.065Z,17.74
2018-07-16T02:03:58.064Z,17.80
2018-07-16T02:04:58.059Z,17.74
2018-07-16T02:05:58.053Z,17.79
2018-07-16T02:06:58.051Z,17.74
2018-07-16T02:07:58.050Z,17.80
2018-07-16T02:08:58.048Z,17.84
2018-07-16T02:09:58.051Z,17.74
2018-07-16T02:10:58.050Z,17.77
2018-07-16T02:11:58.044Z,17.71
2018-07-16T02:12:58.039Z,17.76
2018-07-16T02:13:58.046Z,17.81
2018-07-16T02:14:58.042Z,17.81
2018-07-16T02:15:58.038Z,17.77
2018-07-16T02:16:58.037Z,17.79
2018-07-16T02:17:58.031Z,17.83
2018-07-16T02:18:58.029Z,17.76
2018-07-16T02:19:58.030Z,17.73
2018-07-16T02:20:58.024Z,17.74
2018-07-16T02:21:58.027Z,17.74
2018-07-16T02:22:58.025Z,17.66
2018-07-16T02:23:58.025Z,17.62
2018-07-16T02:24:58.024Z,17.55
2018-07-16T02:25:58.023Z,17.60
2018-07-16T02:26:58.015Z,17.62
2018-07-16T02:27:58.022Z,17.62
2018-07-16T02:28:58.014Z,17.63
2018-07-16T02:29:58.007Z,17.65
2018-07-16T02:30:58.006Z,17.63
2018-07-16T02:31:58.005Z,17.60
2018-07-16T02:32:58.004Z,17.55
2018-07-16T02:33:58.006Z,17.54
2018-07-16T02:34:58.001Z,17.63
2018-07-16T02:35:57.999Z,17.63
2018-07-16T02:36:57.998Z,17.54
2018-07-16T02:37:57.990Z,17.53
2018-07-16T02:38:57.991Z,17.54
2018-07-16T02:39:57.989Z,17.49
2018-07-16T02:40:57.986Z,17.51
2018-07-16T02:41:57.988Z,17.51
2018-07-16T02:42:57.987Z,17.46
2018-07-16T02:43:57.979Z,17.54
2018-07-16T02:44:57.977Z,17.51
2018-07-16T02:45:57.980Z,17.47
2018-07-16T02:46:57.978Z,17.47
2018-07-16T02:47:57.976Z,17.54
2018-07-16T02:48:57.972Z,17.46
2018-07-16T02:49:57.968Z,17.38
2018-07-16T02:50:57.965Z,17.38
2018-07-16T02:51:57.962Z,17.42
2018-07-16T02:52:57.960Z,17.30
2018-07-16T02:53:57.963Z,17.22
2018-07-16T02:54:57.959Z,17.30
2018-07-16T02:55:57.962Z,17.25
2018-07-16T02:56:57.965Z,17.25
2018-07-16T02:57:57.950Z,17.25
2018-07-16T02:58:57.953Z,17.25
2018-07-16T02:59:57.952Z,17.27
2018-07-16T03:00:57.948Z,17.28
2018-07-16T03:01:57.940Z,17.25
2018-07-16T03:02:57.938Z,17.27
2018-07-16T03:03:57.937Z,17.32
2018-07-16T03:04:57.937Z,17.38
2018-07-16T03:05:57.934Z,17.28
2018-07-16T03:06:57.934Z,17.25
2018-07-16T03:07:57.932Z,17.30
2018-07-16T03:08:57.930Z,17.24
2018-07-16T03:09:57.922Z,17.24
2018-07-16T03:10:57.920Z,17.24
2018-07-16T03:11:57.920Z,17.24
2018-07-16T03:12:57.916Z,17.25
2018-07-16T03:13:57.918Z,17.20
2018-07-16T03:14:57.915Z,17.25
2018-07-16T03:15:57.909Z,17.27
2018-07-16T03:16:57.907Z,17.24
2018-07-16T03:17:57.918Z,17.25
2018-07-16T03:18:57.908Z,17.24
2018-07-16T03:19:57.911Z,17.24
2018-07-16T03:20:57.902Z,17.24
2018-07-16T03:21:57.896Z,17.25
2018-07-16T03:22:57.895Z,17.22
2018-07-16T03:23:57.892Z,17.28
2018-07-16T03:24:57.888Z,17.25
2018-07-16T03:25:57.891Z,17.24
2018-07-16T03:26:57.889Z,17.28
2018-07-16T03:27:57.888Z,17.22
2018-07-16T03:28:57.882Z,17.25
2018-07-16T03:29:57.877Z,17.25
2018-07-16T03:30:57.875Z,17.18
2018-07-16T03:31:57.876Z,17.25
2018-07-16T03:32:57.874Z,17.20
2018-07-16T03:33:57.866Z,17.20
2018-07-16T03:34:57.866Z,17.18
2018-07-16T03:35:57.863Z,17.27
2018-07-16T03:36:57.861Z,17.22
2018-07-16T03:37:57.863Z,17.25
2018-07-16T03:38:57.860Z,17.24
2018-07-16T03:39:57.859Z,17.24
2018-07-16T03:40:57.855Z,17.20
2018-07-16T03:41:57.855Z,17.24
2018-07-16T03:42:57.845Z,17.15
2018-07-16T03:43:57.843Z,17.12
2018-07-16T03:44:57.841Z,17.10
2018-07-16T03:45:57.842Z,17.14
2018-07-16T03:46:57.840Z,17.07
2018-07-16T03:47:57.878Z,17.09
2018-07-16T03:48:57.832Z,17.00
2018-07-16T03:49:57.833Z,17.09
2018-07-16T03:50:57.830Z,17.12
2018-07-16T03:51:57.828Z,17.02
2018-07-16T03:52:57.826Z,17.05
2018-07-16T03:53:57.823Z,17.00
2018-07-16T03:54:57.816Z,16.98
2018-07-16T03:55:57.940Z,16.96
2018-07-16T03:56:57.812Z,16.87
2018-07-16T03:57:57.815Z,16.95
2018-07-16T03:58:57.813Z,16.92
2018-07-16T03:59:57.808Z,16.95
2018-07-16T04:00:57.806Z,16.88
2018-07-16T04:01:57.800Z,16.96
2018-07-16T04:02:57.797Z,16.91
2018-07-16T04:03:57.799Z,16.87
2018-07-16T04:04:57.796Z,16.90
2018-07-16T04:05:57.790Z,16.92
2018-07-16T04:06:57.787Z,16.85
2018-07-16T04:07:57.786Z,16.90
2018-07-16T04:08:57.782Z,16.92
2018-07-16T04:09:57.785Z,16.96
2018-07-16T04:10:57.783Z,16.91
2018-07-16T04:11:57.780Z,16.91
2018-07-16T04:12:57.776Z,16.95
2018-07-16T04:13:57.771Z,16.99
2018-07-16T04:14:57.768Z,16.98
2018-07-16T04:15:57.766Z,16.99
2018-07-16T04:16:57.766Z,17.05
2018-07-16T04:17:57.766Z,17.07
2018-07-16T04:18:57.763Z,17.05
2018-07-16T04:19:57.756Z,17.00
2018-07-16T04:20:57.752Z,17.02
2018-07-16T04:21:57.755Z,16.92
2018-07-16T04:22:57.754Z,16.98
2018-07-16T04:23:57.751Z,16.91
2018-07-16T04:24:57.748Z,16.99
2018-07-16T04:25:57.742Z,17.02
2018-07-16T04:26:57.739Z,17.00
2018-07-16T04:27:57.738Z,17.03
2018-07-16T04:28:57.733Z,16.99
2018-07-16T04:29:57.736Z,17.02
2018-07-16T04:30:57.807Z,17.00
2018-07-16T04:31:57.733Z,17.09
2018-07-16T04:32:57.731Z,17.12
2018-07-16T04:33:57.725Z,17.07
2018-07-16T04:34:57.720Z,17.15
2018-07-16T04:35:57.723Z,17.28
2018-07-16T04:36:57.719Z,17.21
2018-07-16T04:37:57.713Z,17.22
2018-07-16T04:38:57.710Z,17.25
2018-07-16T04:39:57.825Z,17.30
2018-07-16T04:40:57.707Z,17.36
2018-07-16T04:41:57.708Z,17.35
2018-07-16T04:42:57.706Z,17.32
2018-07-16T04:43:57.704Z,17.33
2018-07-16T04:44:57.700Z,17.35
2018-07-16T04:45:57.696Z,17.33
2018-07-16T04:46:57.692Z,17.42
2018-07-16T04:47:57.690Z,17.42
2018-07-16T04:48:57.692Z,17.47
2018-07-16T04:49:57.689Z,17.49
2018-07-16T04:50:57.689Z,17.49
2018-07-16T04:51:57.683Z,17.57
2018-07-16T04:52:57.679Z,17.55
2018-07-16T04:53:57.680Z,17.58
2018-07-16T04:54:57.682Z,17.65
2018-07-16T04:55:57.677Z,17.68
2018-07-16T04:56:57.674Z,17.79
2018-07-16T04:57:57.669Z,17.84
2018-07-16T04:58:57.667Z,17.96
2018-07-16T04:59:57.665Z,18.04
2018-07-16T05:00:57.662Z,18.23
2018-07-16T05:01:57.666Z,18.28
2018-07-16T05:02:57.664Z,18.50
2018-07-16T05:03:57.663Z,18.64
2018-07-16T05:04:57.663Z,18.71
2018-07-16T05:05:57.659Z,18.82
2018-07-16T05:06:57.656Z,19.09
2018-07-16T05:07:57.662Z,19.30
2018-07-16T05:08:57.661Z,19.70
2018-07-16T05:09:57.657Z,20.10
2018-07-16T05:10:57.656Z,20.46
2018-07-16T05:11:57.658Z,20.76
2018-07-16T05:12:57.658Z,21.21
2018-07-16T05:13:57.665Z,21.68
2018-07-16T05:14:57.668Z,22.19
2018-07-16T05:15:57.663Z,22.66
2018-07-16T05:16:57.664Z,23.16
2018-07-16T05:17:57.696Z,23.71
2018-07-16T05:18:57.674Z,24.34
2018-07-16T05:19:57.680Z,24.83
2018-07-16T05:20:57.679Z,25.46
2018-07-16T05:21:57.678Z,25.85
2018-07-16T05:22:57.681Z,26.38
2018-07-16T05:23:57.753Z,26.75
2018-07-16T05:24:57.693Z,27.18
2018-07-16T05:25:57.697Z,27.46
2018-07-16T05:26:57.697Z,27.86
2018-07-16T05:27:57.701Z,28.35
2018-07-16T05:28:57.706Z,28.79
2018-07-16T05:29:57.720Z,29.27
2018-07-16T05:30:57.721Z,29.60
2018-07-16T05:31:57.762Z,30.06
2018-07-16T05:32:57.730Z,30.48
2018-07-16T05:33:57.730Z,30.81
2018-07-16T05:34:57.736Z,31.28
2018-07-16T05:35:57.743Z,31.74
2018-07-16T05:36:57.747Z,31.88
2018-07-16T05:37:57.757Z,31.97
2018-07-16T05:38:57.763Z,32.07
2018-07-16T05:39:57.767Z,32.31
2018-07-16T05:40:57.772Z,32.50
2018-07-16T05:41:57.783Z,32.62
2018-07-16T05:42:57.789Z,32.88
2018-07-16T05:43:57.797Z,33.14
2018-07-16T05:44:57.805Z,33.31
2018-07-16T05:45:57.806Z,33.47
2018-07-16T05:46:57.812Z,33.63
2018-07-16T05:47:57.824Z,34.00
2018-07-16T05:48:57.827Z,34.30
2018-07-16T05:49:57.840Z,34.58
2018-07-16T05:50:57.846Z,34.65
2018-07-16T05:51:57.855Z,34.90
2018-07-16T05:52:57.863Z,35.00
2018-07-16T05:53:57.865Z,34.88
2018-07-16T05:54:57.875Z,35.02
2018-07-16T05:55:57.893Z,34.95
2018-07-16T05:56:57.895Z,34.88
2018-07-16T05:57:57.900Z,34.98
2018-07-16T05:58:57.908Z,35.13
2018-07-16T05:59:57.918Z,35.42
2018-07-16T06:00:57.926Z,35.56
2018-07-16T06:01:57.942Z,35.83
2018-07-16T06:02:57.950Z,36.15
2018-07-16T06:03:57.959Z,36.15
2018-07-16T06:04:57.969Z,36.46
2018-07-16T06:05:57.974Z,36.71
2018-07-16T06:06:57.982Z,36.99
2018-07-16T06:07:57.991Z,37.34
2018-07-16T06:08:58.001Z,37.45
2018-07-16T06:09:58.015Z,37.63
2018-07-16T06:10:58.025Z,37.66
2018-07-16T06:11:58.036Z,37.66
2018-07-16T06:12:58.043Z,37.82
2018-07-16T06:13:58.056Z,38.07
2018-07-16T06:14:58.068Z,38.31
2018-07-16T06:15:58.080Z,38.38
2018-07-16T06:16:58.090Z,38.60
2018-07-16T06:17:58.096Z,38.87
2018-07-16T06:18:58.107Z,38.98
2018-07-16T06:19:58.118Z,39.17
2018-07-16T06:20:58.129Z,39.01
2018-07-16T06:21:58.145Z,38.87
2018-07-16T06:22:58.158Z,38.90
2018-07-16T06:23:58.219Z,38.74
2018-07-16T06:24:58.181Z,38.58
2018-07-16T06:25:58.188Z,38.53
2018-07-16T06:26:58.201Z,38.34
2018-07-16T06:27:58.219Z,38.65
2018-07-16T06:28:58.231Z,38.89
2018-07-16T06:29:58.238Z,39.24
2018-07-16T06:30:58.253Z,39.43
2018-07-16T06:31:58.262Z,39.41
2018-07-16T06:32:58.274Z,39.53
2018-07-16T06:33:58.292Z,39.65
2018-07-16T06:34:58.303Z,39.88
2018-07-16T06:35:58.317Z,40.21
2018-07-16T06:36:58.332Z,40.56
2018-07-16T06:37:58.338Z,40.68
2018-07-16T06:38:58.351Z,40.86
2018-07-16T06:39:58.488Z,40.42
2018-07-16T06:40:58.456Z,39.82
2018-07-16T06:41:58.396Z,39.88
2018-07-16T06:42:58.408Z,40.24
2018-07-16T06:43:58.420Z,40.45
2018-07-16T06:44:58.430Z,40.61
2018-07-16T06:45:58.450Z,40.00
2018-07-16T06:46:58.463Z,39.43
2018-07-16T06:47:58.477Z,39.27
2018-07-16T06:48:58.489Z,39.44
2018-07-16T06:49:58.502Z,39.47
2018-07-16T06:50:58.513Z,39.47
2018-07-16T06:51:58.529Z,39.81
2018-07-16T06:52:58.542Z,40.07
2018-07-16T06:53:58.559Z,40.10
2018-07-16T06:54:58.611Z,39.85
2018-07-16T06:55:58.590Z,39.25
2018-07-16T06:56:58.605Z,39.39
2018-07-16T06:57:58.612Z,39.73
2018-07-16T06:58:58.627Z,40.13
2018-07-16T06:59:58.645Z,40.56
2018-07-16T07:00:58.660Z,40.38
2018-07-16T07:01:58.672Z,40.68
2018-07-16T07:02:58.683Z,41.26
2018-07-16T07:03:58.698Z,41.33
2018-07-16T07:04:58.712Z,41.48
2018-07-16T07:05:58.737Z,41.53
2018-07-16T07:06:58.746Z,41.72
2018-07-16T07:07:58.771Z,41.82
2018-07-16T07:08:58.777Z,41.88
2018-07-16T07:09:58.849Z,41.89
2018-07-16T07:10:58.803Z,41.93
2018-07-16T07:11:58.818Z,41.86
2018-07-16T07:12:58.833Z,41.92
2018-07-16T07:13:58.857Z,42.14
2018-07-16T07:14:58.868Z,42.31
2018-07-16T07:15:58.883Z,42.54
2018-07-16T07:16:58.894Z,42.94
2018-07-16T07:17:58.926Z,43.18
2018-07-16T07:18:58.937Z,43.30
2018-07-16T07:19:58.948Z,43.05
2018-07-16T07:20:58.963Z,43.36
2018-07-16T07:21:58.975Z,43.53
2018-07-16T07:22:58.991Z,43.44
2018-07-16T07:23:59.008Z,43.05
2018-07-16T07:24:59.023Z,42.64
2018-07-16T07:25:59.043Z,42.55
2018-07-16T07:26:59.061Z,42.42
2018-07-16T07:27:59.077Z,42.42
2018-07-16T07:28:59.094Z,42.41
2018-07-16T07:29:59.106Z,42.38
2018-07-16T07:30:59.123Z,42.31
2018-07-16T07:31:59.144Z,42.71
2018-07-16T07:32:59.162Z,43.13
2018-07-16T07:33:59.174Z,43.38
2018-07-16T07:34:59.199Z,43.77
2018-07-16T07:35:59.278Z,43.98
2018-07-16T07:36:59.226Z,44.27
2018-07-16T07:37:59.249Z,44.53
2018-07-16T07:38:59.270Z,44.64
2018-07-16T07:39:59.284Z,44.91
2018-07-16T07:40:59.302Z,45.16
2018-07-16T07:41:59.314Z,45.01
2018-07-16T07:42:59.336Z,44.76
2018-07-16T07:43:59.349Z,43.18
2018-07-16T07:44:59.365Z,42.64
2018-07-16T07:45:59.390Z,42.99
2018-07-16T07:46:59.407Z,42.26
2018-07-16T07:47:59.419Z,42.15
2018-07-16T07:48:59.436Z,42.39
2018-07-16T07:49:59.463Z,42.62
2018-07-16T07:50:59.481Z,42.96
2018-07-16T07:51:59.496Z,43.48
2018-07-16T07:52:59.515Z,43.94
2018-07-16T07:53:59.526Z,44.47
2018-07-16T07:54:59.993Z,45.00
2018-07-16T07:55:59.563Z,45.39
2018-07-16T07:56:59.578Z,45.54
2018-07-16T07:57:59.601Z,45.42
2018-07-16T07:58:59.620Z,45.53
2018-07-16T07:59:59.637Z,45.73
2018-07-16T08:00:59.657Z,45.89
2018-07-16T08:01:59.672Z,46.10
2018-07-16T08:02:59.689Z,45.99
2018-07-16T08:03:59.713Z,46.17
2018-07-16T08:04:59.730Z,46.21
2018-07-16T08:05:59.747Z,46.40
2018-07-16T08:06:59.763Z,46.58
2018-07-16T08:07:59.786Z,46.72
2018-07-16T08:08:59.802Z,46.89
2018-07-16T08:09:59.825Z,46.99
2018-07-16T08:10:59.845Z,47.22
2018-07-16T08:11:59.865Z,47.08
2018-07-16T08:12:59.887Z,46.90
2018-07-16T08:13:59.899Z,46.55
2018-07-16T08:14:59.917Z,45.99
2018-07-16T08:15:59.938Z,45.95
2018-07-16T08:16:59.957Z,46.23
2018-07-16T08:17:59.981Z,45.88
2018-07-16T08:19:00.000Z,46.11
2018-07-16T08:20:00.027Z,46.31
2018-07-16T08:21:00.091Z,46.37
2018-07-16T08:22:00.068Z,46.23
2018-07-16T08:23:00.081Z,46.14
2018-07-16T08:24:00.103Z,46.08
2018-07-16T08:25:00.122Z,45.24
2018-07-16T08:26:00.138Z,44.43
2018-07-16T08:27:00.157Z,44.39
2018-07-16T08:28:00.221Z,44.37
2018-07-16T08:29:00.197Z,44.08
2018-07-16T08:30:00.222Z,44.47
2018-07-16T08:31:00.242Z,44.96
2018-07-16T08:32:00.266Z,45.42
2018-07-16T08:33:00.284Z,45.01
2018-07-16T08:34:00.300Z,45.38
2018-07-16T08:35:00.319Z,45.42
2018-07-16T08:36:00.346Z,45.76
2018-07-16T08:37:00.366Z,46.11
2018-07-16T08:38:00.382Z,46.45
2018-07-16T08:39:00.417Z,46.65
2018-07-16T08:40:00.423Z,47.08
2018-07-16T08:41:00.443Z,47.09
2018-07-16T08:42:00.468Z,46.91
2018-07-16T08:43:00.490Z,47.01
2018-07-16T08:44:00.511Z,47.27
2018-07-16T08:45:00.533Z,47.51
2018-07-16T08:46:00.549Z,47.78
2018-07-16T08:47:00.592Z,48.14
2018-07-16T08:48:00.601Z,48.55
2018-07-16T08:49:00.614Z,48.60
2018-07-16T08:50:00.642Z,48.50
2018-07-16T08:51:00.663Z,48.41
2018-07-16T08:52:00.680Z,48.16
2018-07-16T08:53:00.702Z,48.35
2018-07-16T08:54:00.728Z,47.47
2018-07-16T08:55:00.754Z,45.83
2018-07-16T08:56:00.774Z,45.16
2018-07-16T08:57:00.795Z,43.75
2018-07-16T08:58:00.813Z,43.65
2018-07-16T08:59:00.836Z,44.24
2018-07-16T09:00:00.859Z,44.96
2018-07-16T09:01:00.887Z,45.22
2018-07-16T09:02:00.908Z,45.65
2018-07-16T09:03:00.931Z,45.80
2018-07-16T09:04:01.007Z,45.27
2018-07-16T09:05:00.978Z,44.98
2018-07-16T09:06:00.996Z,44.16
2018-07-16T09:07:01.035Z,43.86
2018-07-16T09:08:01.046Z,43.41
2018-07-16T09:09:01.069Z,43.60
2018-07-16T09:10:01.086Z,42.77
2018-07-16T09:11:01.182Z,42.27
2018-07-16T09:12:01.131Z,41.12
2018-07-16T09:13:01.151Z,40.45
2018-07-16T09:14:01.179Z,41.35
2018-07-16T09:15:01.200Z,41.72
2018-07-16T09:16:01.222Z,42.67
2018-07-16T09:17:01.347Z,43.49
2018-07-16T09:18:01.262Z,43.94
2018-07-16T09:19:01.282Z,44.66
2018-07-16T09:20:01.304Z,45.35
2018-07-16T09:21:01.325Z,45.58
2018-07-16T09:22:01.353Z,44.92
2018-07-16T09:23:01.381Z,44.97
2018-07-16T09:24:01.410Z,45.23
2018-07-16T09:25:01.412Z,45.38
2018-07-16T09:26:01.438Z,46.10
2018-07-16T09:27:01.461Z,46.70
2018-07-16T09:28:01.482Z,47.24
2018-07-16T09:29:01.506Z,47.64
2018-07-16T09:30:01.521Z,47.51
2018-07-16T09:31:01.542Z,47.50
2018-07-16T09:32:01.566Z,47.01
2018-07-16T09:33:01.588Z,45.38
2018-07-16T09:34:01.615Z,44.06
2018-07-16T09:35:01.636Z,43.03
2018-07-16T09:36:01.660Z,42.15
2018-07-16T09:37:01.681Z,42.21
2018-07-16T09:38:01.700Z,42.09
2018-07-16T09:39:01.778Z,42.26
2018-07-16T09:40:01.749Z,41.44
2018-07-16T09:41:01.769Z,42.11
2018-07-16T09:42:01.789Z,42.80
2018-07-16T09:43:01.810Z,42.99
2018-07-16T09:44:01.832Z,43.17
2018-07-16T09:45:01.849Z,43.52
2018-07-16T09:46:01.875Z,43.10
2018-07-16T09:47:01.897Z,43.53
2018-07-16T09:48:01.919Z,43.91
2018-07-16T09:49:01.941Z,44.35
2018-07-16T09:50:01.958Z,44.46
2018-07-16T09:51:01.983Z,44.54
2018-07-16T09:52:02.004Z,44.03
2018-07-16T09:53:02.026Z,43.96
2018-07-16T09:54:02.051Z,43.81
2018-07-16T09:55:02.077Z,44.05
2018-07-16T09:56:02.164Z,44.73
2018-07-16T09:57:02.115Z,45.26
2018-07-16T09:58:02.141Z,45.44
2018-07-16T09:59:02.163Z,46.07
2018-07-16T10:00:02.209Z,46.18
2018-07-16T10:01:02.206Z,45.75
2018-07-16T10:02:02.225Z,46.29
2018-07-16T10:03:02.247Z,46.40
2018-07-16T10:04:02.269Z,46.80
2018-07-16T10:05:02.293Z,46.33
2018-07-16T10:06:02.319Z,45.69
2018-07-16T10:07:02.344Z,45.61
2018-07-16T10:08:02.392Z,43.71
2018-07-16T10:09:02.389Z,42.91
2018-07-16T10:10:02.408Z,42.95
2018-07-16T10:11:02.429Z,42.84
2018-07-16T10:12:02.458Z,43.14
2018-07-16T10:13:02.480Z,43.89
2018-07-16T10:14:02.496Z,44.59
2018-07-16T10:15:02.519Z,45.15
2018-07-16T10:16:02.543Z,45.41
2018-07-16T10:17:02.565Z,46.08
2018-07-16T10:18:02.590Z,46.52
2018-07-16T10:19:02.614Z,47.18
2018-07-16T10:20:02.636Z,47.37
2018-07-16T10:21:02.659Z,47.91
2018-07-16T10:22:02.676Z,48.28
2018-07-16T10:23:02.700Z,48.26
2018-07-16T10:24:02.723Z,47.36
2018-07-16T10:25:02.747Z,46.80
2018-07-16T10:26:02.775Z,46.58
2018-07-16T10:27:02.797Z,46.68
2018-07-16T10:28:02.816Z,46.36
2018-07-16T10:29:02.837Z,46.01
2018-07-16T10:30:02.866Z,45.51
2018-07-16T10:31:02.889Z,45.63
2018-07-16T10:32:02.912Z,44.05
2018-07-16T10:33:02.939Z,44.13
2018-07-16T10:34:02.953Z,44.34
2018-07-16T10:35:02.977Z,44.56
2018-07-16T10:36:02.999Z,43.60
2018-07-16T10:37:03.020Z,43.45
2018-07-16T10:38:03.048Z,43.38
2018-07-16T10:39:03.072Z,43.05
2018-07-16T10:40:03.093Z,43.03
2018-07-16T10:41:03.114Z,42.46
2018-07-16T10:42:03.132Z,42.41
2018-07-16T10:43:03.154Z,42.79
2018-07-16T10:44:03.182Z,42.96
2018-07-16T10:45:03.202Z,42.68
2018-07-16T10:46:03.221Z,42.62
2018-07-16T10:47:03.245Z,42.42
2018-07-16T10:48:03.265Z,42.67
2018-07-16T10:49:03.285Z,42.79
2018-07-16T10:50:03.311Z,42.94
2018-07-16T10:51:03.334Z,43.41
2018-07-16T10:52:03.355Z,42.57
2018-07-16T10:53:03.377Z,42.15
2018-07-16T10:54:03.392Z,42.36
2018-07-16T10:55:03.454Z,43.06
2018-07-16T10:56:03.438Z,43.53
2018-07-16T10:57:03.459Z,43.52
2018-07-16T10:58:03.481Z,42.62
2018-07-16T10:59:03.502Z,41.55
2018-07-16T11:00:03.520Z,40.63
2018-07-16T11:01:03.539Z,39.96
2018-07-16T11:02:03.674Z,39.92
2018-07-16T11:03:03.680Z,39.38
2018-07-16T11:04:03.609Z,39.69
2018-07-16T11:05:03.629Z,40.36
2018-07-16T11:06:03.645Z,41.09
2018-07-16T11:07:03.665Z,41.83
2018-07-16T11:08:03.685Z,41.90
2018-07-16T11:09:03.705Z,42.46
2018-07-16T11:10:03.731Z,42.79
2018-07-16T11:11:03.751Z,43.24
2018-07-16T11:12:03.773Z,43.70
2018-07-16T11:13:03.790Z,43.24
2018-07-16T11:14:03.807Z,43.01
2018-07-16T11:15:03.867Z,43.01
2018-07-16T11:16:03.853Z,42.52
2018-07-16T11:17:03.873Z,41.28
2018-07-16T11:18:03.890Z,40.79
2018-07-16T11:19:03.909Z,41.10
2018-07-16T11:20:03.931Z,40.73
2018-07-16T11:21:03.954Z,40.79
2018-07-16T11:22:03.976Z,41.09
2018-07-16T11:23:03.995Z,41.14
2018-07-16T11:24:04.017Z,41.44
2018-07-16T11:25:04.036Z,41.14
2018-07-16T11:26:04.053Z,40.72
2018-07-16T11:27:04.071Z,40.75
2018-07-16T11:28:04.090Z,40.80
2018-07-16T11:29:04.108Z,40.82
2018-07-16T11:30:04.131Z,40.57
2018-07-16T11:31:04.154Z,40.07
2018-07-16T11:32:04.164Z,39.68
2018-07-16T11:33:04.181Z,39.27
2018-07-16T11:34:04.202Z,37.27
2018-07-16T11:35:04.220Z,36.79
2018-07-16T11:36:04.237Z,36.62
2018-07-16T11:37:04.253Z,36.56
2018-07-16T11:38:04.270Z,36.59
2018-07-16T11:39:04.280Z,36.64
2018-07-16T11:40:04.296Z,36.57
2018-07-16T11:41:04.311Z,36.33
2018-07-16T11:42:04.329Z,36.12
2018-07-16T11:43:04.344Z,36.05
2018-07-16T11:44:04.359Z,35.95
2018-07-16T11:45:04.373Z,35.58
2018-07-16T11:46:04.427Z,35.58
2018-07-16T11:47:04.395Z,35.84
2018-07-16T11:48:04.419Z,35.61
2018-07-16T11:49:04.425Z,35.31
2018-07-16T11:50:04.435Z,34.87
2018-07-16T11:51:04.446Z,34.58
2018-07-16T11:52:04.491Z,34.48
2018-07-16T11:53:04.468Z,34.37
2018-07-16T11:54:04.484Z,34.24
2018-07-16T11:55:04.496Z,33.65
2018-07-16T11:56:04.508Z,33.41
2018-07-16T11:57:04.519Z,33.24
2018-07-16T11:58:04.525Z,33.29
2018-07-16T11:59:04.711Z,33.00
2018-07-16T12:00:04.545Z,32.90
2018-07-16T12:01:04.555Z,32.71
2018-07-16T12:02:04.580Z,32.77
2018-07-16T12:03:04.583Z,32.69
2018-07-16T12:04:04.587Z,32.85
2018-07-16T12:05:04.659Z,33.00
2018-07-16T12:06:04.609Z,33.14
2018-07-16T12:07:04.618Z,33.31
2018-07-16T12:08:04.626Z,33.40
2018-07-16T12:09:04.636Z,33.60
2018-07-16T12:10:04.639Z,33.74
2018-07-16T12:11:04.649Z,33.92
2018-07-16T12:12:04.656Z,34.08
2018-07-16T12:13:04.665Z,33.99
2018-07-16T12:14:04.677Z,34.01
2018-07-16T12:15:04.688Z,34.03
2018-07-16T12:16:04.695Z,34.01
2018-07-16T12:17:04.703Z,34.19
2018-07-16T12:18:04.708Z,34.16
2018-07-16T12:19:04.715Z,33.78
2018-07-16T12:20:04.730Z,33.70
2018-07-16T12:21:04.740Z,33.81
2018-07-16T12:22:04.740Z,33.72
2018-07-16T12:23:04.748Z,33.62
2018-07-16T12:24:04.756Z,33.05
2018-07-16T12:25:04.764Z,32.91
2018-07-16T12:26:04.778Z,32.85
2018-07-16T12:27:04.784Z,32.85
2018-07-16T12:28:04.798Z,32.93
2018-07-16T12:29:04.801Z,32.69
2018-07-16T12:30:04.803Z,32.73
2018-07-16T12:31:04.811Z,32.80
2018-07-16T12:32:04.822Z,32.83
2018-07-16T12:33:04.827Z,32.71
2018-07-16T12:34:04.840Z,32.73
2018-07-16T12:35:04.850Z,32.73
2018-07-16T12:36:04.851Z,32.80
2018-07-16T12:37:04.858Z,32.88
2018-07-16T12:38:04.877Z,33.05
2018-07-16T12:39:04.878Z,33.11
2018-07-16T12:40:04.887Z,33.31
2018-07-16T12:41:04.891Z,33.47
2018-07-16T12:42:04.895Z,33.53
2018-07-16T12:43:04.903Z,33.62
2018-07-16T12:44:04.910Z,33.65
2018-07-16T12:45:04.968Z,33.72
2018-07-16T12:46:04.930Z,33.87
2018-07-16T12:47:05.029Z,33.65
2018-07-16T12:48:05.023Z,33.63
2018-07-16T12:49:04.952Z,33.63
2018-07-16T12:50:04.954Z,33.70
2018-07-16T12:51:04.962Z,33.57
2018-07-16T12:52:04.974Z,33.66
2018-07-16T12:53:04.980Z,33.63